Weather at Tanagra Air Base

Public forecast

Using degrees Celsius for public forecast. Weather courtesy of forecast.io.

Current aviation weather report (METAR) for Tanagra Air Base

2024/07/20 22:50 (retrieved 11 minutes ago)

LGTG 202250Z 00000KT CAVOK 22/09 Q1008 BLU

Closest aviation forecast (TAF) to Tanagra Air Base

Closest forecast is Elefsis Air Base, 16.6 nm (30.7 km) S.

2024/07/20 18:13 (retrieved 5 hours ago)

TAF LGEL 201700Z 2018/2118 35012KT CAVOK BECMG 2020/2022 VRB05KT BECMG 2107/2109 17010KT 9999 FEW030